Andrews, Indiana
Current Conditions -  °F | °C
As of 9:15 AM on Saturday 22 Nov 2014 (Local Time) from KHHG Reporting Station
Overcast Overcast  
Wind Chill: 33°   Ceiling: 4700
Heat Index: 39°   Visibility: 10mi
Dew Point: 35°   Wind: 9mph
Humidity: 84%   Direction: 210°SSW
Pressure: 30.13"   Gusts: 16mph
Location:  40.86°N, 85.6°W
Report Text: KHHG 221415Z AUTO 21008G14KT 10SM BKN047 BKN055 OVC085 04/02 A3013 RMK AO2 T00400016
Loading
Personal Weather Stations






























Interactive Weather Map New forecast layout! Learn more

10-Day Weather Forecast

Advertisements
Track Severe Weather on mobile